sensor_id;sensor_type;location;lat;lon;timestamp;P1;durP1;ratioP1;P2;durP2;ratioP2
7193;SDS011;3638;48.820;9.244;2023-03-01T00:00:18;23.63;;;16.23;;
7193;SDS011;3638;48.820;9.244;2023-03-01T00:02:45;20.90;;;17.23;;
7193;SDS011;3638;48.820;9.244;2023-03-01T00:05:12;21.83;;;16.43;;
7193;SDS011;3638;48.820;9.244;2023-03-01T00:07:40;23.13;;;17.50;;
7193;SDS011;3638;48.820;9.244;2023-03-01T00:10:08;21.47;;;16.27;;
7193;SDS011;3638;48.820;9.244;2023-03-01T00:12:37;24.70;;;17.73;;
7193;SDS011;3638;48.820;9.244;2023-03-01T00:15:04;22.13;;;17.33;;
7193;SDS011;3638;48.820;9.244;2023-03-01T00:17:32;20.43;;;16.27;;
7193;SDS011;3638;48.820;9.244;2023-03-01T00:19:59;19.13;;;15.43;;
7193;SDS011;3638;48.820;9.244;2023-03-01T00:22:26;21.07;;;16.60;;
7193;SDS011;3638;48.820;9.244;2023-03-01T00:24:55;20.57;;;16.03;;
7193;SDS011;3638;48.820;9.244;2023-03-01T00:27:22;19.07;;;16.00;;
7193;SDS011;3638;48.820;9.244;2023-03-01T00:29:49;20.23;;;16.30;;
7193;SDS011;3638;48.820;9.244;2023-03-01T00:32:16;20.13;;;16.30;;
7193;SDS011;3638;48.820;9.244;2023-03-01T00:34:43;20.10;;;16.90;;
7193;SDS011;3638;48.820;9.244;2023-03-01T00:37:18;18.33;;;15.87;;
7193;SDS011;3638;48.820;9.244;2023-03-01T00:39:46;18.87;;;15.60;;
7193;SDS011;3638;48.820;9.244;2023-03-01T00:42:14;18.27;;;16.00;;
7193;SDS011;3638;48.820;9.244;2023-03-01T00:44:42;19.67;;;15.77;;
7193;SDS011;3638;48.820;9.244;2023-03-01T00:47:09;19.70;;;15.70;;
7193;SDS011;3638;48.820;9.244;2023-03-01T00:49:36;21.63;;;16.07;;
7193;SDS011;3638;48.820;9.244;2023-03-01T00:52:03;19.17;;;15.97;;
7193;SDS011;3638;48.820;9.244;2023-03-01T00:54:30;20.03;;;16.00;;
7193;SDS011;3638;48.820;9.244;2023-03-01T00:56:57;19.40;;;16.70;;
7193;SDS011;3638;48.820;9.244;2023-03-01T00:59:25;18.17;;;15.90;;
7193;SDS011;3638;48.820;9.244;2023-03-01T01:01:52;20.43;;;15.43;;
7193;SDS011;3638;48.820;9.244;2023-03-01T01:04:19;20.20;;;15.50;;
7193;SDS011;3638;48.820;9.244;2023-03-01T01:06:46;19.80;;;15.57;;
7193;SDS011;3638;48.820;9.244;2023-03-01T01:09:14;19.07;;;15.60;;
7193;SDS011;3638;48.820;9.244;2023-03-01T01:11:43;19.23;;;16.87;;
7193;SDS011;3638;48.820;9.244;2023-03-01T01:14:10;22.87;;;17.10;;
7193;SDS011;3638;48.820;9.244;2023-03-01T01:16:38;21.40;;;16.00;;
7193;SDS011;3638;48.820;9.244;2023-03-01T01:19:05;20.13;;;16.57;;
7193;SDS011;3638;48.820;9.244;2023-03-01T01:21:33;20.37;;;16.67;;
7193;SDS011;3638;48.820;9.244;2023-03-01T01:24:00;20.47;;;16.77;;
7193;SDS011;3638;48.820;9.244;2023-03-01T01:26:29;20.43;;;16.53;;
7193;SDS011;3638;48.820;9.244;2023-03-01T01:29:02;21.67;;;17.80;;
7193;SDS011;3638;48.820;9.244;2023-03-01T01:31:31;22.00;;;18.53;;
7193;SDS011;3638;48.820;9.244;2023-03-01T01:34:01;21.53;;;17.07;;
7193;SDS011;3638;48.820;9.244;2023-03-01T01:36:31;23.07;;;18.30;;
7193;SDS011;3638;48.820;9.244;2023-03-01T01:38:59;21.27;;;17.20;;
7193;SDS011;3638;48.820;9.244;2023-03-01T01:41:27;24.37;;;17.93;;
7193;SDS011;3638;48.820;9.244;2023-03-01T01:44:11;21.57;;;17.70;;
7193;SDS011;3638;48.820;9.244;2023-03-01T01:46:43;22.63;;;17.73;;
7193;SDS011;3638;48.820;9.244;2023-03-01T01:49:18;23.23;;;17.80;;
7193;SDS011;3638;48.820;9.244;2023-03-01T01:51:52;24.27;;;17.90;;
7193;SDS011;3638;48.820;9.244;2023-03-01T01:54:28;21.57;;;17.30;;
7193;SDS011;3638;48.820;9.244;2023-03-01T01:57:06;21.47;;;17.17;;
7193;SDS011;3638;48.820;9.244;2023-03-01T01:59:42;21.83;;;16.53;;
7193;SDS011;3638;48.820;9.244;2023-03-01T02:02:14;22.50;;;17.70;;
7193;SDS011;3638;48.820;9.244;2023-03-01T02:04:42;21.77;;;17.07;;
7193;SDS011;3638;48.820;9.244;2023-03-01T02:07:10;21.93;;;17.67;;
7193;SDS011;3638;48.820;9.244;2023-03-01T02:09:43;21.97;;;17.67;;
7193;SDS011;3638;48.820;9.244;2023-03-01T02:12:13;21.00;;;17.67;;
7193;SDS011;3638;48.820;9.244;2023-03-01T02:14:42;23.17;;;17.90;;
7193;SDS011;3638;48.820;9.244;2023-03-01T02:17:09;22.40;;;16.97;;
7193;SDS011;3638;48.820;9.244;2023-03-01T02:19:40;21.23;;;17.17;;
7193;SDS011;3638;48.820;9.244;2023-03-01T02:22:20;20.27;;;17.43;;
7193;SDS011;3638;48.820;9.244;2023-03-01T02:24:54;22.80;;;17.53;;
7193;SDS011;3638;48.820;9.244;2023-03-01T02:27:40;22.87;;;17.93;;
7193;SDS011;3638;48.820;9.244;2023-03-01T02:30:17;21.30;;;16.27;;
7193;SDS011;3638;48.820;9.244;2023-03-01T02:32:45;21.50;;;18.13;;
7193;SDS011;3638;48.820;9.244;2023-03-01T02:35:13;23.70;;;17.37;;
7193;SDS011;3638;48.820;9.244;2023-03-01T02:37:42;22.43;;;16.70;;
7193;SDS011;3638;48.820;9.244;2023-03-01T02:40:11;23.27;;;18.60;;
7193;SDS011;3638;48.820;9.244;2023-03-01T02:42:43;24.57;;;17.63;;
7193;SDS011;3638;48.820;9.244;2023-03-01T02:45:18;24.80;;;18.27;;
7193;SDS011;3638;48.820;9.244;2023-03-01T02:47:46;20.93;;;17.13;;
7193;SDS011;3638;48.820;9.244;2023-03-01T02:50:15;23.17;;;17.07;;
7193;SDS011;3638;48.820;9.244;2023-03-01T02:53:10;21.23;;;16.93;;
7193;SDS011;3638;48.820;9.244;2023-03-01T02:55:43;22.30;;;16.80;;
7193;SDS011;3638;48.820;9.244;2023-03-01T02:58:10;21.77;;;18.53;;
7193;SDS011;3638;48.820;9.244;2023-03-01T03:00:40;22.93;;;17.93;;
7193;SDS011;3638;48.820;9.244;2023-03-01T03:03:10;24.33;;;18.33;;
7193;SDS011;3638;48.820;9.244;2023-03-01T03:05:40;22.47;;;17.47;;
7193;SDS011;3638;48.820;9.244;2023-03-01T03:08:07;24.27;;;17.63;;
7193;SDS011;3638;48.820;9.244;2023-03-01T03:10:36;22.80;;;18.00;;
7193;SDS011;3638;48.820;9.244;2023-03-01T03:13:06;23.77;;;17.87;;
7193;SDS011;3638;48.820;9.244;2023-03-01T03:15:35;22.90;;;17.97;;
7193;SDS011;3638;48.820;9.244;2023-03-01T03:18:07;20.73;;;16.90;;
7193;SDS011;3638;48.820;9.244;2023-03-01T03:20:36;24.00;;;18.37;;
7193;SDS011;3638;48.820;9.244;2023-03-01T03:23:06;22.53;;;18.87;;
7193;SDS011;3638;48.820;9.244;2023-03-01T03:25:33;24.07;;;18.03;;
7193;SDS011;3638;48.820;9.244;2023-03-01T03:28:02;23.40;;;18.07;;
7193;SDS011;3638;48.820;9.244;2023-03-01T03:30:34;23.70;;;18.40;;
7193;SDS011;3638;48.820;9.244;2023-03-01T03:33:05;24.33;;;19.27;;
7193;SDS011;3638;48.820;9.244;2023-03-01T03:35:34;23.07;;;17.77;;
7193;SDS011;3638;48.820;9.244;2023-03-01T03:38:07;24.63;;;18.13;;
7193;SDS011;3638;48.820;9.244;2023-03-01T03:40:41;23.33;;;18.03;;
7193;SDS011;3638;48.820;9.244;2023-03-01T03:43:11;23.40;;;18.20;;
7193;SDS011;3638;48.820;9.244;2023-03-01T03:45:40;24.90;;;17.90;;
7193;SDS011;3638;48.820;9.244;2023-03-01T03:48:09;25.17;;;17.97;;
7193;SDS011;3638;48.820;9.244;2023-03-01T03:50:36;24.03;;;18.13;;
7193;SDS011;3638;48.820;9.244;2023-03-01T03:53:04;21.97;;;17.07;;
7193;SDS011;3638;48.820;9.244;2023-03-01T03:55:33;25.20;;;18.47;;
7193;SDS011;3638;48.820;9.244;2023-03-01T03:58:04;23.00;;;17.73;;
7193;SDS011;3638;48.820;9.244;2023-03-01T04:00:33;24.27;;;18.97;;
7193;SDS011;3638;48.820;9.244;2023-03-01T04:03:02;23.07;;;17.40;;
7193;SDS011;3638;48.820;9.244;2023-03-01T04:05:31;21.90;;;17.40;;
7193;SDS011;3638;48.820;9.244;2023-03-01T04:07:58;22.97;;;17.13;;
7193;SDS011;3638;48.820;9.244;2023-03-01T04:10:28;23.33;;;17.47;;
7193;SDS011;3638;48.820;9.244;2023-03-01T04:12:59;25.43;;;17.97;;
7193;SDS011;3638;48.820;9.244;2023-03-01T04:15:26;24.40;;;16.97;;
7193;SDS011;3638;48.820;9.244;2023-03-01T04:17:54;22.93;;;17.47;;
7193;SDS011;3638;48.820;9.244;2023-03-01T04:20:22;21.70;;;16.57;;
7193;SDS011;3638;48.820;9.244;2023-03-01T04:22:56;22.53;;;17.37;;
7193;SDS011;3638;48.820;9.244;2023-03-01T04:25:25;21.87;;;17.40;;
7193;SDS011;3638;48.820;9.244;2023-03-01T04:27:52;21.27;;;17.50;;
7193;SDS011;3638;48.820;9.244;2023-03-01T04:30:19;22.47;;;17.23;;
7193;SDS011;3638;48.820;9.244;2023-03-01T04:32:50;21.80;;;17.53;;
7193;SDS011;3638;48.820;9.244;2023-03-01T04:35:17;25.10;;;18.40;;
7193;SDS011;3638;48.820;9.244;2023-03-01T04:37:44;21.77;;;17.37;;
7193;SDS011;3638;48.820;9.244;2023-03-01T04:40:13;22.27;;;17.43;;
7193;SDS011;3638;48.820;9.244;2023-03-01T04:42:41;21.73;;;17.27;;
7193;SDS011;3638;48.820;9.244;2023-03-01T04:45:09;23.43;;;18.73;;
7193;SDS011;3638;48.820;9.244;2023-03-01T04:47:38;24.97;;;18.03;;
7193;SDS011;3638;48.820;9.244;2023-03-01T04:50:06;26.13;;;18.63;;
7193;SDS011;3638;48.820;9.244;2023-03-01T04:52:35;24.67;;;18.03;;
7193;SDS011;3638;48.820;9.244;2023-03-01T04:55:02;23.33;;;18.27;;
7193;SDS011;3638;48.820;9.244;2023-03-01T04:57:32;22.27;;;17.73;;
7193;SDS011;3638;48.820;9.244;2023-03-01T04:59:59;26.50;;;18.50;;
7193;SDS011;3638;48.820;9.244;2023-03-01T05:02:27;24.23;;;17.83;;
7193;SDS011;3638;48.820;9.244;2023-03-01T05:04:54;25.20;;;17.40;;
7193;SDS011;3638;48.820;9.244;2023-03-01T05:07:22;23.07;;;17.33;;
7193;SDS011;3638;48.820;9.244;2023-03-01T05:09:51;24.37;;;17.43;;
7193;SDS011;3638;48.820;9.244;2023-03-01T05:12:18;25.43;;;17.67;;
7193;SDS011;3638;48.820;9.244;2023-03-01T05:14:46;22.20;;;17.30;;
7193;SDS011;3638;48.820;9.244;2023-03-01T05:17:13;21.63;;;17.03;;
7193;SDS011;3638;48.820;9.244;2023-03-01T05:19:40;23.03;;;17.20;;
7193;SDS011;3638;48.820;9.244;2023-03-01T05:22:07;25.47;;;17.77;;
7193;SDS011;3638;48.820;9.244;2023-03-01T05:24:34;22.00;;;17.50;;
7193;SDS011;3638;48.820;9.244;2023-03-01T05:27:03;24.33;;;17.97;;
7193;SDS011;3638;48.820;9.244;2023-03-01T05:29:31;24.87;;;17.20;;
7193;SDS011;3638;48.820;9.244;2023-03-01T05:32:01;24.47;;;18.00;;
7193;SDS011;3638;48.820;9.244;2023-03-01T05:34:29;23.17;;;17.77;;
7193;SDS011;3638;48.820;9.244;2023-03-01T05:36:58;22.37;;;17.73;;
7193;SDS011;3638;48.820;9.244;2023-03-01T05:39:26;23.80;;;17.90;;
7193;SDS011;3638;48.820;9.244;2023-03-01T05:41:55;22.67;;;17.73;;
7193;SDS011;3638;48.820;9.244;2023-03-01T05:44:24;21.77;;;17.20;;
7193;SDS011;3638;48.820;9.244;2023-03-01T05:46:53;25.27;;;18.70;;
7193;SDS011;3638;48.820;9.244;2023-03-01T05:49:21;23.10;;;17.33;;
7193;SDS011;3638;48.820;9.244;2023-03-01T05:51:49;25.57;;;18.27;;
7193;SDS011;3638;48.820;9.244;2023-03-01T05:54:18;23.17;;;18.17;;
7193;SDS011;3638;48.820;9.244;2023-03-01T05:56:46;23.87;;;17.87;;
7193;SDS011;3638;48.820;9.244;2023-03-01T05:59:13;22.47;;;17.27;;
7193;SDS011;3638;48.820;9.244;2023-03-01T06:01:41;22.60;;;17.97;;
7193;SDS011;3638;48.820;9.244;2023-03-01T06:04:08;24.00;;;18.23;;
7193;SDS011;3638;48.820;9.244;2023-03-01T06:06:37;23.30;;;18.57;;
7193;SDS011;3638;48.820;9.244;2023-03-01T06:09:04;28.23;;;19.00;;
7193;SDS011;3638;48.820;9.244;2023-03-01T06:11:33;24.43;;;18.00;;
7193;SDS011;3638;48.820;9.244;2023-03-01T06:14:00;23.83;;;17.87;;
7193;SDS011;3638;48.820;9.244;2023-03-01T06:16:27;22.90;;;18.33;;
7193;SDS011;3638;48.820;9.244;2023-03-01T06:18:53;26.10;;;18.67;;
7193;SDS011;3638;48.820;9.244;2023-03-01T06:21:20;22.90;;;18.43;;
7193;SDS011;3638;48.820;9.244;2023-03-01T06:23:49;26.03;;;19.10;;
7193;SDS011;3638;48.820;9.244;2023-03-01T06:26:16;25.50;;;18.77;;
7193;SDS011;3638;48.820;9.244;2023-03-01T06:28:43;23.57;;;18.20;;
7193;SDS011;3638;48.820;9.244;2023-03-01T06:31:11;26.77;;;19.63;;
7193;SDS011;3638;48.820;9.244;2023-03-01T06:33:38;23.40;;;18.30;;
7193;SDS011;3638;48.820;9.244;2023-03-01T06:36:06;24.37;;;19.27;;
7193;SDS011;3638;48.820;9.244;2023-03-01T06:38:35;21.83;;;18.10;;
7193;SDS011;3638;48.820;9.244;2023-03-01T06:41:03;25.73;;;18.83;;
7193;SDS011;3638;48.820;9.244;2023-03-01T06:43:30;26.53;;;18.77;;
7193;SDS011;3638;48.820;9.244;2023-03-01T06:45:57;26.27;;;19.93;;
7193;SDS011;3638;48.820;9.244;2023-03-01T06:48:24;24.47;;;18.50;;
7193;SDS011;3638;48.820;9.244;2023-03-01T06:50:51;26.37;;;19.10;;
7193;SDS011;3638;48.820;9.244;2023-03-01T06:53:18;26.63;;;19.00;;
7193;SDS011;3638;48.820;9.244;2023-03-01T06:55:44;26.00;;;18.80;;
7193;SDS011;3638;48.820;9.244;2023-03-01T06:58:13;26.27;;;19.40;;
7193;SDS011;3638;48.820;9.244;2023-03-01T07:00:40;26.47;;;18.57;;
7193;SDS011;3638;48.820;9.244;2023-03-01T07:03:08;24.73;;;19.50;;
7193;SDS011;3638;48.820;9.244;2023-03-01T07:05:35;26.00;;;18.00;;
7193;SDS011;3638;48.820;9.244;2023-03-01T07:08:02;25.47;;;18.90;;
7193;SDS011;3638;48.820;9.244;2023-03-01T07:10:29;24.77;;;17.90;;
7193;SDS011;3638;48.820;9.244;2023-03-01T07:12:56;26.80;;;18.43;;
7193;SDS011;3638;48.820;9.244;2023-03-01T07:15:25;27.03;;;18.53;;
7193;SDS011;3638;48.820;9.244;2023-03-01T07:17:53;23.63;;;17.83;;
7193;SDS011;3638;48.820;9.244;2023-03-01T07:20:20;23.57;;;18.53;;
7193;SDS011;3638;48.820;9.244;2023-03-01T07:22:50;26.37;;;18.30;;
7193;SDS011;3638;48.820;9.244;2023-03-01T07:25:17;26.67;;;18.47;;
7193;SDS011;3638;48.820;9.244;2023-03-01T07:27:44;24.23;;;17.87;;
7193;SDS011;3638;48.820;9.244;2023-03-01T07:30:16;22.43;;;17.70;;
7193;SDS011;3638;48.820;9.244;2023-03-01T07:32:45;20.57;;;17.03;;
7193;SDS011;3638;48.820;9.244;2023-03-01T07:35:11;28.07;;;19.77;;
7193;SDS011;3638;48.820;9.244;2023-03-01T07:37:39;23.33;;;18.23;;
7193;SDS011;3638;48.820;9.244;2023-03-01T07:40:07;24.57;;;18.90;;
7193;SDS011;3638;48.820;9.244;2023-03-01T07:42:35;28.33;;;19.17;;
7193;SDS011;3638;48.820;9.244;2023-03-01T07:45:02;24.47;;;19.17;;
7193;SDS011;3638;48.820;9.244;2023-03-01T07:47:31;22.53;;;16.90;;
7193;SDS011;3638;48.820;9.244;2023-03-01T07:50:00;24.87;;;17.97;;
7193;SDS011;3638;48.820;9.244;2023-03-01T07:52:27;23.70;;;18.17;;
7193;SDS011;3638;48.820;9.244;2023-03-01T07:54:54;25.33;;;18.60;;
7193;SDS011;3638;48.820;9.244;2023-03-01T07:57:21;28.80;;;18.93;;
7193;SDS011;3638;48.820;9.244;2023-03-01T07:59:48;23.20;;;17.67;;
7193;SDS011;3638;48.820;9.244;2023-03-01T08:02:15;24.20;;;17.63;;
7193;SDS011;3638;48.820;9.244;2023-03-01T08:04:42;26.83;;;18.33;;
7193;SDS011;3638;48.820;9.244;2023-03-01T08:07:10;25.37;;;18.33;;
7193;SDS011;3638;48.820;9.244;2023-03-01T08:09:37;24.80;;;18.27;;
7193;SDS011;3638;48.820;9.244;2023-03-01T08:12:04;23.73;;;18.03;;
7193;SDS011;3638;48.820;9.244;2023-03-01T08:14:32;22.67;;;17.37;;
7193;SDS011;3638;48.820;9.244;2023-03-01T08:16:59;24.07;;;18.27;;
7193;SDS011;3638;48.820;9.244;2023-03-01T08:19:28;23.10;;;18.37;;
7193;SDS011;3638;48.820;9.244;2023-03-01T08:21:56;24.50;;;18.23;;
7193;SDS011;3638;48.820;9.244;2023-03-01T08:24:25;23.97;;;18.70;;
7193;SDS011;3638;48.820;9.244;2023-03-01T08:26:52;24.93;;;17.97;;
7193;SDS011;3638;48.820;9.244;2023-03-01T08:29:19;26.17;;;18.00;;
7193;SDS011;3638;48.820;9.244;2023-03-01T08:31:47;25.97;;;18.80;;
7193;SDS011;3638;48.820;9.244;2023-03-01T08:34:15;22.77;;;17.70;;
7193;SDS011;3638;48.820;9.244;2023-03-01T08:36:45;26.33;;;18.60;;
7193;SDS011;3638;48.820;9.244;2023-03-01T08:39:13;22.70;;;17.63;;
7193;SDS011;3638;48.820;9.244;2023-03-01T08:41:44;26.23;;;19.30;;
7193;SDS011;3638;48.820;9.244;2023-03-01T08:44:11;25.00;;;18.47;;
7193;SDS011;3638;48.820;9.244;2023-03-01T08:46:41;24.33;;;19.37;;
7193;SDS011;3638;48.820;9.244;2023-03-01T08:49:11;25.07;;;18.17;;
7193;SDS011;3638;48.820;9.244;2023-03-01T08:51:39;26.40;;;18.93;;
7193;SDS011;3638;48.820;9.244;2023-03-01T08:54:09;30.13;;;18.87;;
7193;SDS011;3638;48.820;9.244;2023-03-01T08:56:39;23.63;;;17.93;;
7193;SDS011;3638;48.820;9.244;2023-03-01T08:59:08;23.97;;;17.93;;
7193;SDS011;3638;48.820;9.244;2023-03-01T09:01:36;25.93;;;18.07;;
7193;SDS011;3638;48.820;9.244;2023-03-01T09:04:03;24.20;;;18.13;;
7193;SDS011;3638;48.820;9.244;2023-03-01T09:06:30;24.27;;;18.47;;
7193;SDS011;3638;48.820;9.244;2023-03-01T09:08:58;25.23;;;18.73;;
7193;SDS011;3638;48.820;9.244;2023-03-01T09:11:25;23.43;;;18.30;;
7193;SDS011;3638;48.820;9.244;2023-03-01T09:13:53;23.13;;;18.37;;
7193;SDS011;3638;48.820;9.244;2023-03-01T09:16:22;23.03;;;17.07;;
7193;SDS011;3638;48.820;9.244;2023-03-01T09:18:50;23.20;;;18.03;;
7193;SDS011;3638;48.820;9.244;2023-03-01T09:21:19;25.17;;;18.43;;
7193;SDS011;3638;48.820;9.244;2023-03-01T09:23:48;22.30;;;17.77;;
7193;SDS011;3638;48.820;9.244;2023-03-01T09:26:16;27.50;;;18.37;;
7193;SDS011;3638;48.820;9.244;2023-03-01T09:28:46;24.37;;;18.43;;
7193;SDS011;3638;48.820;9.244;2023-03-01T09:31:13;23.40;;;17.43;;
7193;SDS011;3638;48.820;9.244;2023-03-01T09:33:44;25.20;;;18.10;;
7193;SDS011;3638;48.820;9.244;2023-03-01T09:36:15;24.40;;;18.10;;
7193;SDS011;3638;48.820;9.244;2023-03-01T09:38:44;22.63;;;18.63;;
7193;SDS011;3638;48.820;9.244;2023-03-01T09:41:15;24.90;;;18.00;;
7193;SDS011;3638;48.820;9.244;2023-03-01T09:44:04;23.67;;;17.90;;
7193;SDS011;3638;48.820;9.244;2023-03-01T09:46:43;24.33;;;18.63;;
7193;SDS011;3638;48.820;9.244;2023-03-01T09:49:14;24.10;;;18.63;;
7193;SDS011;3638;48.820;9.244;2023-03-01T09:51:46;25.73;;;19.13;;
7193;SDS011;3638;48.820;9.244;2023-03-01T09:54:23;22.80;;;18.20;;
7193;SDS011;3638;48.820;9.244;2023-03-01T09:56:56;25.43;;;18.67;;
7193;SDS011;3638;48.820;9.244;2023-03-01T09:59:47;22.23;;;17.27;;
7193;SDS011;3638;48.820;9.244;2023-03-01T10:02:30;19.47;;;16.10;;
7193;SDS011;3638;48.820;9.244;2023-03-01T10:05:12;20.97;;;16.50;;
7193;SDS011;3638;48.820;9.244;2023-03-01T10:07:54;21.53;;;16.83;;
7193;SDS011;3638;48.820;9.244;2023-03-01T10:10:43;23.47;;;16.70;;
7193;SDS011;3638;48.820;9.244;2023-03-01T10:13:14;21.13;;;17.07;;
7193;SDS011;3638;48.820;9.244;2023-03-01T10:15:47;21.47;;;16.47;;
7193;SDS011;3638;48.820;9.244;2023-03-01T10:18:20;25.80;;;17.43;;
7193;SDS011;3638;48.820;9.244;2023-03-01T10:20:53;21.77;;;16.87;;
7193;SDS011;3638;48.820;9.244;2023-03-01T10:23:22;21.33;;;16.83;;
7193;SDS011;3638;48.820;9.244;2023-03-01T10:26:09;21.97;;;16.33;;
7193;SDS011;3638;48.820;9.244;2023-03-01T10:28:55;21.23;;;16.37;;
7193;SDS011;3638;48.820;9.244;2023-03-01T10:31:32;23.17;;;17.33;;
7193;SDS011;3638;48.820;9.244;2023-03-01T10:34:08;23.07;;;17.83;;
7193;SDS011;3638;48.820;9.244;2023-03-01T10:36:43;20.73;;;15.73;;
7193;SDS011;3638;48.820;9.244;2023-03-01T10:39:12;22.13;;;16.80;;
7193;SDS011;3638;48.820;9.244;2023-03-01T10:41:53;22.33;;;17.50;;
7193;SDS011;3638;48.820;9.244;2023-03-01T10:44:39;21.57;;;16.23;;
7193;SDS011;3638;48.820;9.244;2023-03-01T10:47:19;22.00;;;17.47;;
7193;SDS011;3638;48.820;9.244;2023-03-01T10:49:52;22.30;;;16.73;;
7193;SDS011;3638;48.820;9.244;2023-03-01T10:52:29;21.63;;;16.40;;
7193;SDS011;3638;48.820;9.244;2023-03-01T10:55:00;23.63;;;17.20;;
7193;SDS011;3638;48.820;9.244;2023-03-01T10:57:43;21.27;;;16.50;;
7193;SDS011;3638;48.820;9.244;2023-03-01T11:00:20;20.33;;;16.97;;
7193;SDS011;3638;48.820;9.244;2023-03-01T11:02:51;23.77;;;16.53;;
7193;SDS011;3638;48.820;9.244;2023-03-01T11:05:37;23.93;;;17.40;;
7193;SDS011;3638;48.820;9.244;2023-03-01T11:08:37;21.20;;;17.20;;
7193;SDS011;3638;48.820;9.244;2023-03-01T11:13:58;22.60;;;16.60;;
7193;SDS011;3638;48.820;9.244;2023-03-01T11:16:27;20.83;;;16.20;;
7193;SDS011;3638;48.820;9.244;2023-03-01T11:18:59;20.50;;;16.63;;
7193;SDS011;3638;48.820;9.244;2023-03-01T11:21:45;20.23;;;16.87;;
7193;SDS011;3638;48.820;9.244;2023-03-01T11:24:22;19.93;;;15.27;;
7193;SDS011;3638;48.820;9.244;2023-03-01T11:26:56;20.83;;;16.43;;
7193;SDS011;3638;48.820;9.244;2023-03-01T11:29:30;20.13;;;15.30;;
7193;SDS011;3638;48.820;9.244;2023-03-01T11:32:04;20.07;;;15.63;;
7193;SDS011;3638;48.820;9.244;2023-03-01T11:34:39;19.37;;;15.33;;
7193;SDS011;3638;48.820;9.244;2023-03-01T11:40:05;22.40;;;15.70;;
7193;SDS011;3638;48.820;9.244;2023-03-01T11:42:46;22.00;;;15.43;;
7193;SDS011;3638;48.820;9.244;2023-03-01T11:45:23;23.33;;;15.73;;
7193;SDS011;3638;48.820;9.244;2023-03-01T11:48:06;19.50;;;15.57;;
7193;SDS011;3638;48.820;9.244;2023-03-01T11:51:05;19.10;;;15.03;;
7193;SDS011;3638;48.820;9.244;2023-03-01T11:53:48;20.57;;;15.53;;
7193;SDS011;3638;48.820;9.244;2023-03-01T11:56:28;17.63;;;14.33;;
7193;SDS011;3638;48.820;9.244;2023-03-01T11:59:03;19.57;;;15.77;;
7193;SDS011;3638;48.820;9.244;2023-03-01T12:02:02;20.07;;;15.63;;
7193;SDS011;3638;48.820;9.244;2023-03-01T12:04:54;20.23;;;14.03;;
7193;SDS011;3638;48.820;9.244;2023-03-01T12:07:41;20.77;;;14.50;;
7193;SDS011;3638;48.820;9.244;2023-03-01T12:10:20;17.93;;;14.80;;
7193;SDS011;3638;48.820;9.244;2023-03-01T12:15:54;20.90;;;15.03;;
7193;SDS011;3638;48.820;9.244;2023-03-01T12:18:45;18.20;;;14.17;;
7193;SDS011;3638;48.820;9.244;2023-03-01T12:21:27;18.93;;;14.50;;
7193;SDS011;3638;48.820;9.244;2023-03-01T12:24:18;20.20;;;15.07;;
7193;SDS011;3638;48.820;9.244;2023-03-01T12:27:17;19.87;;;14.63;;
7193;SDS011;3638;48.820;9.244;2023-03-01T12:30:09;15.90;;;13.60;;
7193;SDS011;3638;48.820;9.244;2023-03-01T12:32:54;15.87;;;12.60;;
7193;SDS011;3638;48.820;9.244;2023-03-01T12:35:45;16.97;;;13.43;;
7193;SDS011;3638;48.820;9.244;2023-03-01T12:38:37;14.70;;;13.13;;
7193;SDS011;3638;48.820;9.244;2023-03-01T12:41:11;20.13;;;13.73;;
7193;SDS011;3638;48.820;9.244;2023-03-01T12:44:15;16.97;;;14.47;;
7193;SDS011;3638;48.820;9.244;2023-03-01T12:47:02;16.73;;;13.63;;
7193;SDS011;3638;48.820;9.244;2023-03-01T12:49:41;17.70;;;13.83;;
7193;SDS011;3638;48.820;9.244;2023-03-01T12:52:12;20.47;;;13.90;;
7193;SDS011;3638;48.820;9.244;2023-03-01T12:54:45;16.60;;;13.13;;
7193;SDS011;3638;48.820;9.244;2023-03-01T12:57:15;17.20;;;13.70;;
7193;SDS011;3638;48.820;9.244;2023-03-01T12:59:50;17.17;;;13.10;;
7193;SDS011;3638;48.820;9.244;2023-03-01T13:02:35;15.40;;;13.00;;
7193;SDS011;3638;48.820;9.244;2023-03-01T13:05:18;15.93;;;12.43;;
7193;SDS011;3638;48.820;9.244;2023-03-01T13:07:53;15.50;;;12.70;;
7193;SDS011;3638;48.820;9.244;2023-03-01T13:10:26;18.10;;;14.07;;
7193;SDS011;3638;48.820;9.244;2023-03-01T13:13:01;18.13;;;14.30;;
7193;SDS011;3638;48.820;9.244;2023-03-01T13:15:39;17.47;;;14.13;;
7193;SDS011;3638;48.820;9.244;2023-03-01T13:20:58;18.53;;;13.90;;
7193;SDS011;3638;48.820;9.244;2023-03-01T13:23:29;17.40;;;14.17;;
7193;SDS011;3638;48.820;9.244;2023-03-01T13:26:03;18.70;;;15.00;;
7193;SDS011;3638;48.820;9.244;2023-03-01T13:28:41;18.17;;;14.60;;
7193;SDS011;3638;48.820;9.244;2023-03-01T13:43:29;18.83;;;15.70;;
7193;SDS011;3638;48.820;9.244;2023-03-01T13:45:59;23.33;;;15.70;;
7193;SDS011;3638;48.820;9.244;2023-03-01T13:48:28;21.57;;;16.67;;
7193;SDS011;3638;48.820;9.244;2023-03-01T13:50:59;21.40;;;16.30;;
7193;SDS011;3638;48.820;9.244;2023-03-01T13:53:30;21.93;;;16.33;;
7193;SDS011;3638;48.820;9.244;2023-03-01T13:56:02;21.13;;;17.03;;
7193;SDS011;3638;48.820;9.244;2023-03-01T13:58:44;22.57;;;16.67;;
7193;SDS011;3638;48.820;9.244;2023-03-01T14:01:22;22.80;;;17.00;;
7193;SDS011;3638;48.820;9.244;2023-03-01T14:03:53;20.83;;;16.57;;
7193;SDS011;3638;48.820;9.244;2023-03-01T14:06:26;21.30;;;16.50;;
7193;SDS011;3638;48.820;9.244;2023-03-01T14:09:00;23.03;;;16.43;;
7193;SDS011;3638;48.820;9.244;2023-03-01T14:14:51;22.93;;;16.27;;
7193;SDS011;3638;48.820;9.244;2023-03-01T14:17:32;22.57;;;16.77;;
7193;SDS011;3638;48.820;9.244;2023-03-01T14:20:14;21.07;;;17.10;;
7193;SDS011;3638;48.820;9.244;2023-03-01T14:22:47;22.90;;;17.03;;
7193;SDS011;3638;48.820;9.244;2023-03-01T14:25:18;21.33;;;16.80;;
7193;SDS011;3638;48.820;9.244;2023-03-01T14:27:55;21.60;;;15.53;;
7193;SDS011;3638;48.820;9.244;2023-03-01T14:30:30;21.87;;;16.77;;
7193;SDS011;3638;48.820;9.244;2023-03-01T14:33:01;22.07;;;16.80;;
7193;SDS011;3638;48.820;9.244;2023-03-01T14:35:33;20.17;;;16.43;;
7193;SDS011;3638;48.820;9.244;2023-03-01T14:38:03;21.13;;;16.00;;
7193;SDS011;3638;48.820;9.244;2023-03-01T14:40:31;22.83;;;17.60;;
7193;SDS011;3638;48.820;9.244;2023-03-01T14:43:01;21.43;;;17.40;;
7193;SDS011;3638;48.820;9.244;2023-03-01T14:45:35;21.53;;;15.67;;
7193;SDS011;3638;48.820;9.244;2023-03-01T14:48:02;21.73;;;16.43;;
7193;SDS011;3638;48.820;9.244;2023-03-01T14:50:32;21.57;;;16.50;;
7193;SDS011;3638;48.820;9.244;2023-03-01T14:53:02;20.17;;;15.70;;
7193;SDS011;3638;48.820;9.244;2023-03-01T14:55:33;19.03;;;16.23;;
7193;SDS011;3638;48.820;9.244;2023-03-01T14:58:06;22.63;;;16.10;;
7193;SDS011;3638;48.820;9.244;2023-03-01T15:00:38;22.87;;;16.70;;
7193;SDS011;3638;48.820;9.244;2023-03-01T15:03:11;21.80;;;16.77;;
7193;SDS011;3638;48.820;9.244;2023-03-01T15:05:43;23.70;;;16.77;;
7193;SDS011;3638;48.820;9.244;2023-03-01T15:08:15;23.47;;;17.20;;
7193;SDS011;3638;48.820;9.244;2023-03-01T15:10:55;21.40;;;16.77;;
7193;SDS011;3638;48.820;9.244;2023-03-01T15:13:30;22.37;;;17.83;;
7193;SDS011;3638;48.820;9.244;2023-03-01T15:16:03;23.57;;;17.70;;
7193;SDS011;3638;48.820;9.244;2023-03-01T15:18:34;23.23;;;17.80;;
7193;SDS011;3638;48.820;9.244;2023-03-01T15:21:05;20.30;;;16.30;;
7193;SDS011;3638;48.820;9.244;2023-03-01T15:23:36;18.67;;;15.40;;
7193;SDS011;3638;48.820;9.244;2023-03-01T15:26:06;23.00;;;15.80;;
7193;SDS011;3638;48.820;9.244;2023-03-01T15:28:49;21.57;;;16.53;;
7193;SDS011;3638;48.820;9.244;2023-03-01T15:31:20;23.60;;;15.60;;
7193;SDS011;3638;48.820;9.244;2023-03-01T15:33:49;20.77;;;16.47;;
7193;SDS011;3638;48.820;9.244;2023-03-01T15:36:30;19.90;;;16.00;;
7193;SDS011;3638;48.820;9.244;2023-03-01T15:42:02;24.43;;;16.93;;
7193;SDS011;3638;48.820;9.244;2023-03-01T15:44:32;22.23;;;16.83;;